Terminal Aerodrome Forecast
Issued by NWS

Home | Current Version | Previous Version | Graphics & Text | Print | Product List | Glossary On
Versions: 1 2 3 4 5 6 7 8 9 10 11 12 13
000
FTUS42 KMHX 101700
TAFOAJ
TAF
KOAJ 101736Z 1018/1118 21007KT P6SM VCTS SCT015 BKN040CB
     FM110500 20004KT 4SM BR VCSH BKN040 OVC200
      AMD LTD TO CLD VIS AND WIND=

USA.gov is the U.S. government's official web portal to all federal, state and local government web resources and services.